sensor_id;sensor_type;location;lat;lon;timestamp;P1;durP1;ratioP1;P2;durP2;ratioP2
25922;SDS011;13725;51.170;4.442;2023-07-20T00:00:52;10.10;;;3.85;;
25922;SDS011;13725;51.170;4.442;2023-07-20T00:03:18;11.63;;;3.50;;
25922;SDS011;13725;51.170;4.442;2023-07-20T00:05:50;10.57;;;3.90;;
25922;SDS011;13725;51.170;4.442;2023-07-20T00:08:17;10.98;;;3.58;;
25922;SDS011;13725;51.170;4.442;2023-07-20T00:10:43;8.77;;;3.75;;
25922;SDS011;13725;51.170;4.442;2023-07-20T00:13:11;10.50;;;3.78;;
25922;SDS011;13725;51.170;4.442;2023-07-20T00:15:37;6.65;;;3.22;;
25922;SDS011;13725;51.170;4.442;2023-07-20T00:18:03;8.13;;;3.17;;
25922;SDS011;13725;51.170;4.442;2023-07-20T00:20:29;11.57;;;3.83;;
25922;SDS011;13725;51.170;4.442;2023-07-20T00:22:56;12.35;;;3.67;;
25922;SDS011;13725;51.170;4.442;2023-07-20T00:25:26;10.10;;;3.60;;
25922;SDS011;13725;51.170;4.442;2023-07-20T00:27:52;8.95;;;3.50;;
25922;SDS011;13725;51.170;4.442;2023-07-20T00:30:19;12.25;;;3.83;;
25922;SDS011;13725;51.170;4.442;2023-07-20T00:32:45;6.45;;;3.17;;
25922;SDS011;13725;51.170;4.442;2023-07-20T00:35:11;15.65;;;4.32;;
25922;SDS011;13725;51.170;4.442;2023-07-20T00:37:37;16.40;;;3.65;;
25922;SDS011;13725;51.170;4.442;2023-07-20T00:40:04;10.43;;;4.32;;
25922;SDS011;13725;51.170;4.442;2023-07-20T00:42:32;7.93;;;3.90;;
25922;SDS011;13725;51.170;4.442;2023-07-20T00:44:59;14.18;;;3.70;;
25922;SDS011;13725;51.170;4.442;2023-07-20T00:47:25;11.15;;;4.03;;
25922;SDS011;13725;51.170;4.442;2023-07-20T00:49:52;8.38;;;4.03;;
25922;SDS011;13725;51.170;4.442;2023-07-20T00:52:20;11.30;;;3.47;;
25922;SDS011;13725;51.170;4.442;2023-07-20T00:54:48;11.98;;;4.13;;
25922;SDS011;13725;51.170;4.442;2023-07-20T00:57:15;11.02;;;4.10;;
25922;SDS011;13725;51.170;4.442;2023-07-20T00:59:41;10.27;;;4.03;;
25922;SDS011;13725;51.170;4.442;2023-07-20T01:02:07;7.85;;;3.58;;
25922;SDS011;13725;51.170;4.442;2023-07-20T01:04:34;9.65;;;4.20;;
25922;SDS011;13725;51.170;4.442;2023-07-20T01:07:09;10.73;;;3.50;;
25922;SDS011;13725;51.170;4.442;2023-07-20T01:09:42;9.73;;;3.78;;
25922;SDS011;13725;51.170;4.442;2023-07-20T01:12:17;8.13;;;3.53;;
25922;SDS011;13725;51.170;4.442;2023-07-20T01:14:49;8.65;;;3.83;;
25922;SDS011;13725;51.170;4.442;2023-07-20T01:17:16;8.80;;;3.92;;
25922;SDS011;13725;51.170;4.442;2023-07-20T01:19:43;12.75;;;4.07;;
25922;SDS011;13725;51.170;4.442;2023-07-20T01:22:34;8.38;;;3.80;;
25922;SDS011;13725;51.170;4.442;2023-07-20T01:31:21;9.60;;;4.40;;
25922;SDS011;13725;51.170;4.442;2023-07-20T01:33:50;8.90;;;4.40;;
25922;SDS011;13725;51.170;4.442;2023-07-20T01:36:24;9.45;;;4.07;;
25922;SDS011;13725;51.170;4.442;2023-07-20T01:38:53;10.70;;;4.28;;
25922;SDS011;13725;51.170;4.442;2023-07-20T01:41:19;11.30;;;4.75;;
25922;SDS011;13725;51.170;4.442;2023-07-20T01:43:46;8.20;;;4.25;;
25922;SDS011;13725;51.170;4.442;2023-07-20T01:46:12;14.18;;;4.78;;
25922;SDS011;13725;51.170;4.442;2023-07-20T01:48:37;10.85;;;4.57;;
25922;SDS011;13725;51.170;4.442;2023-07-20T01:51:03;9.98;;;4.80;;
25922;SDS011;13725;51.170;4.442;2023-07-20T01:53:29;13.18;;;4.68;;
25922;SDS011;13725;51.170;4.442;2023-07-20T01:55:56;14.07;;;5.45;;
25922;SDS011;13725;51.170;4.442;2023-07-20T01:58:22;10.48;;;5.53;;
25922;SDS011;13725;51.170;4.442;2023-07-20T02:00:47;13.85;;;5.25;;
25922;SDS011;13725;51.170;4.442;2023-07-20T02:03:13;17.40;;;5.68;;
25922;SDS011;13725;51.170;4.442;2023-07-20T02:05:41;11.07;;;5.57;;
25922;SDS011;13725;51.170;4.442;2023-07-20T02:08:08;11.10;;;5.30;;
25922;SDS011;13725;51.170;4.442;2023-07-20T02:10:35;10.73;;;5.45;;
25922;SDS011;13725;51.170;4.442;2023-07-20T02:13:01;11.93;;;6.03;;
25922;SDS011;13725;51.170;4.442;2023-07-20T02:15:27;13.32;;;6.38;;
25922;SDS011;13725;51.170;4.442;2023-07-20T02:17:53;8.70;;;5.43;;
25922;SDS011;13725;51.170;4.442;2023-07-20T02:20:19;11.77;;;5.22;;
25922;SDS011;13725;51.170;4.442;2023-07-20T02:22:45;15.80;;;5.90;;
25922;SDS011;13725;51.170;4.442;2023-07-20T02:25:11;12.27;;;6.05;;
25922;SDS011;13725;51.170;4.442;2023-07-20T02:27:37;17.42;;;6.10;;
25922;SDS011;13725;51.170;4.442;2023-07-20T02:30:04;11.52;;;5.45;;
25922;SDS011;13725;51.170;4.442;2023-07-20T02:32:32;14.52;;;6.15;;
25922;SDS011;13725;51.170;4.442;2023-07-20T02:34:59;15.73;;;5.72;;
25922;SDS011;13725;51.170;4.442;2023-07-20T02:37:24;12.15;;;6.25;;
25922;SDS011;13725;51.170;4.442;2023-07-20T02:39:50;13.93;;;6.40;;
25922;SDS011;13725;51.170;4.442;2023-07-20T02:42:16;11.75;;;5.78;;
25922;SDS011;13725;51.170;4.442;2023-07-20T02:44:42;18.77;;;6.68;;
25922;SDS011;13725;51.170;4.442;2023-07-20T02:47:08;11.75;;;6.13;;
25922;SDS011;13725;51.170;4.442;2023-07-20T02:49:34;13.55;;;6.78;;
25922;SDS011;13725;51.170;4.442;2023-07-20T02:52:00;13.55;;;5.90;;
25922;SDS011;13725;51.170;4.442;2023-07-20T02:54:26;13.63;;;6.53;;
25922;SDS011;13725;51.170;4.442;2023-07-20T02:56:53;16.35;;;6.35;;
25922;SDS011;13725;51.170;4.442;2023-07-20T02:59:20;16.60;;;7.13;;
25922;SDS011;13725;51.170;4.442;2023-07-20T03:01:46;11.38;;;6.50;;
25922;SDS011;13725;51.170;4.442;2023-07-20T03:04:11;13.02;;;7.05;;
25922;SDS011;13725;51.170;4.442;2023-07-20T03:06:37;13.88;;;7.47;;
25922;SDS011;13725;51.170;4.442;2023-07-20T03:09:03;10.60;;;6.97;;
25922;SDS011;13725;51.170;4.442;2023-07-20T03:11:29;14.55;;;7.20;;
25922;SDS011;13725;51.170;4.442;2023-07-20T03:13:57;17.40;;;7.43;;
25922;SDS011;13725;51.170;4.442;2023-07-20T03:16:23;12.90;;;7.38;;
25922;SDS011;13725;51.170;4.442;2023-07-20T03:18:51;14.93;;;6.90;;
25922;SDS011;13725;51.170;4.442;2023-07-20T03:21:18;12.60;;;7.25;;
25922;SDS011;13725;51.170;4.442;2023-07-20T03:23:43;15.35;;;7.28;;
25922;SDS011;13725;51.170;4.442;2023-07-20T03:26:10;13.25;;;7.70;;
25922;SDS011;13725;51.170;4.442;2023-07-20T03:28:36;16.55;;;7.55;;
25922;SDS011;13725;51.170;4.442;2023-07-20T03:31:03;14.10;;;7.38;;
25922;SDS011;13725;51.170;4.442;2023-07-20T03:33:32;12.73;;;7.43;;
25922;SDS011;13725;51.170;4.442;2023-07-20T03:35:59;18.42;;;8.13;;
25922;SDS011;13725;51.170;4.442;2023-07-20T03:38:25;15.25;;;8.40;;
25922;SDS011;13725;51.170;4.442;2023-07-20T03:40:53;15.57;;;8.68;;
25922;SDS011;13725;51.170;4.442;2023-07-20T03:43:23;15.52;;;8.13;;
25922;SDS011;13725;51.170;4.442;2023-07-20T03:45:51;13.98;;;7.40;;
25922;SDS011;13725;51.170;4.442;2023-07-20T03:48:18;12.07;;;7.05;;
25922;SDS011;13725;51.170;4.442;2023-07-20T03:50:45;12.18;;;7.00;;
25922;SDS011;13725;51.170;4.442;2023-07-20T03:53:11;14.60;;;7.75;;
25922;SDS011;13725;51.170;4.442;2023-07-20T03:55:38;15.43;;;7.32;;
25922;SDS011;13725;51.170;4.442;2023-07-20T03:58:05;19.45;;;8.15;;
25922;SDS011;13725;51.170;4.442;2023-07-20T04:00:32;11.75;;;7.95;;
25922;SDS011;13725;51.170;4.442;2023-07-20T04:02:57;12.82;;;7.90;;
25922;SDS011;13725;51.170;4.442;2023-07-20T04:05:24;13.48;;;7.88;;
25922;SDS011;13725;51.170;4.442;2023-07-20T04:07:51;13.55;;;6.78;;
25922;SDS011;13725;51.170;4.442;2023-07-20T04:10:18;9.95;;;6.97;;
25922;SDS011;13725;51.170;4.442;2023-07-20T04:12:44;11.55;;;7.15;;
25922;SDS011;13725;51.170;4.442;2023-07-20T04:15:12;15.55;;;7.60;;
25922;SDS011;13725;51.170;4.442;2023-07-20T04:17:38;12.95;;;7.65;;
25922;SDS011;13725;51.170;4.442;2023-07-20T04:20:05;10.05;;;6.72;;
25922;SDS011;13725;51.170;4.442;2023-07-20T04:22:32;14.63;;;6.95;;
25922;SDS011;13725;51.170;4.442;2023-07-20T04:24:58;9.27;;;6.15;;
25922;SDS011;13725;51.170;4.442;2023-07-20T04:27:24;11.75;;;6.35;;
25922;SDS011;13725;51.170;4.442;2023-07-20T04:29:49;10.77;;;6.57;;
25922;SDS011;13725;51.170;4.442;2023-07-20T04:32:15;13.15;;;6.47;;
25922;SDS011;13725;51.170;4.442;2023-07-20T04:34:41;11.05;;;6.75;;
25922;SDS011;13725;51.170;4.442;2023-07-20T04:37:08;13.40;;;6.63;;
25922;SDS011;13725;51.170;4.442;2023-07-20T04:39:34;7.57;;;5.53;;
25922;SDS011;13725;51.170;4.442;2023-07-20T04:42:05;11.25;;;6.55;;
25922;SDS011;13725;51.170;4.442;2023-07-20T04:44:32;10.55;;;6.35;;
25922;SDS011;13725;51.170;4.442;2023-07-20T04:46:58;11.07;;;6.18;;
25922;SDS011;13725;51.170;4.442;2023-07-20T04:49:23;9.57;;;5.63;;
25922;SDS011;13725;51.170;4.442;2023-07-20T04:51:49;11.52;;;5.60;;
25922;SDS011;13725;51.170;4.442;2023-07-20T04:54:16;8.45;;;4.38;;
25922;SDS011;13725;51.170;4.442;2023-07-20T04:56:43;6.95;;;4.13;;
25922;SDS011;13725;51.170;4.442;2023-07-20T04:59:11;5.60;;;3.60;;
25922;SDS011;13725;51.170;4.442;2023-07-20T05:01:36;6.07;;;3.38;;
25922;SDS011;13725;51.170;4.442;2023-07-20T05:04:02;6.93;;;3.80;;
25922;SDS011;13725;51.170;4.442;2023-07-20T05:06:28;5.88;;;3.08;;
25922;SDS011;13725;51.170;4.442;2023-07-20T05:08:55;4.57;;;3.22;;
25922;SDS011;13725;51.170;4.442;2023-07-20T05:11:21;4.97;;;3.35;;
25922;SDS011;13725;51.170;4.442;2023-07-20T05:13:47;8.73;;;3.78;;
25922;SDS011;13725;51.170;4.442;2023-07-20T05:16:13;9.18;;;4.45;;
25922;SDS011;13725;51.170;4.442;2023-07-20T05:18:39;6.50;;;3.65;;
25922;SDS011;13725;51.170;4.442;2023-07-20T05:21:05;4.40;;;3.40;;
25922;SDS011;13725;51.170;4.442;2023-07-20T05:23:32;4.22;;;3.53;;
25922;SDS011;13725;51.170;4.442;2023-07-20T05:25:58;3.88;;;2.42;;
25922;SDS011;13725;51.170;4.442;2023-07-20T05:28:25;5.35;;;2.88;;
25922;SDS011;13725;51.170;4.442;2023-07-20T05:30:52;5.93;;;2.92;;
25922;SDS011;13725;51.170;4.442;2023-07-20T05:33:19;5.22;;;3.30;;
25922;SDS011;13725;51.170;4.442;2023-07-20T05:35:45;5.80;;;2.63;;
25922;SDS011;13725;51.170;4.442;2023-07-20T05:38:11;4.13;;;3.00;;
25922;SDS011;13725;51.170;4.442;2023-07-20T05:40:37;4.72;;;2.97;;
25922;SDS011;13725;51.170;4.442;2023-07-20T05:43:05;6.65;;;3.72;;
25922;SDS011;13725;51.170;4.442;2023-07-20T05:45:31;5.35;;;3.78;;
25922;SDS011;13725;51.170;4.442;2023-07-20T05:47:57;5.97;;;4.32;;
25922;SDS011;13725;51.170;4.442;2023-07-20T05:50:22;7.93;;;3.78;;
25922;SDS011;13725;51.170;4.442;2023-07-20T05:52:48;7.00;;;3.50;;
25922;SDS011;13725;51.170;4.442;2023-07-20T05:55:18;5.38;;;3.53;;
25922;SDS011;13725;51.170;4.442;2023-07-20T05:57:43;5.72;;;3.28;;
25922;SDS011;13725;51.170;4.442;2023-07-20T06:00:09;6.93;;;3.25;;
25922;SDS011;13725;51.170;4.442;2023-07-20T06:02:41;6.30;;;3.58;;
25922;SDS011;13725;51.170;4.442;2023-07-20T06:05:07;4.72;;;3.08;;
25922;SDS011;13725;51.170;4.442;2023-07-20T06:07:37;2.67;;;2.47;;
25922;SDS011;13725;51.170;4.442;2023-07-20T06:10:03;3.50;;;2.50;;
25922;SDS011;13725;51.170;4.442;2023-07-20T06:12:31;4.05;;;2.38;;
25922;SDS011;13725;51.170;4.442;2023-07-20T06:14:57;5.95;;;2.80;;
25922;SDS011;13725;51.170;4.442;2023-07-20T06:17:27;2.20;;;2.00;;
25922;SDS011;13725;51.170;4.442;2023-07-20T06:19:53;2.03;;;1.90;;
25922;SDS011;13725;51.170;4.442;2023-07-20T06:22:18;2.95;;;1.83;;
25922;SDS011;13725;51.170;4.442;2023-07-20T06:24:44;2.90;;;2.00;;
25922;SDS011;13725;51.170;4.442;2023-07-20T06:27:10;4.90;;;2.58;;
25922;SDS011;13725;51.170;4.442;2023-07-20T06:29:36;4.32;;;2.30;;
25922;SDS011;13725;51.170;4.442;2023-07-20T06:32:02;4.20;;;2.35;;
25922;SDS011;13725;51.170;4.442;2023-07-20T06:34:28;3.78;;;2.20;;
25922;SDS011;13725;51.170;4.442;2023-07-20T06:36:55;4.13;;;2.85;;
25922;SDS011;13725;51.170;4.442;2023-07-20T06:39:20;3.30;;;2.70;;
25922;SDS011;13725;51.170;4.442;2023-07-20T06:41:47;2.55;;;2.35;;
25922;SDS011;13725;51.170;4.442;2023-07-20T06:44:13;3.00;;;2.50;;
25922;SDS011;13725;51.170;4.442;2023-07-20T06:46:39;3.88;;;2.83;;
25922;SDS011;13725;51.170;4.442;2023-07-20T06:49:07;4.28;;;2.65;;
25922;SDS011;13725;51.170;4.442;2023-07-20T06:51:33;3.95;;;2.40;;
25922;SDS011;13725;51.170;4.442;2023-07-20T06:54:00;3.47;;;2.28;;
25922;SDS011;13725;51.170;4.442;2023-07-20T06:56:29;3.28;;;2.55;;
25922;SDS011;13725;51.170;4.442;2023-07-20T06:58:55;3.20;;;2.90;;
25922;SDS011;13725;51.170;4.442;2023-07-20T07:01:21;6.85;;;2.70;;
25922;SDS011;13725;51.170;4.442;2023-07-20T07:03:47;4.68;;;2.70;;
25922;SDS011;13725;51.170;4.442;2023-07-20T07:06:13;5.22;;;3.33;;
25922;SDS011;13725;51.170;4.442;2023-07-20T07:08:38;3.85;;;2.92;;
25922;SDS011;13725;51.170;4.442;2023-07-20T07:11:04;6.32;;;3.08;;
25922;SDS011;13725;51.170;4.442;2023-07-20T07:13:31;6.65;;;3.70;;
25922;SDS011;13725;51.170;4.442;2023-07-20T07:15:57;5.35;;;3.10;;
25922;SDS011;13725;51.170;4.442;2023-07-20T07:18:23;5.03;;;3.20;;
25922;SDS011;13725;51.170;4.442;2023-07-20T07:20:53;3.45;;;2.55;;
25922;SDS011;13725;51.170;4.442;2023-07-20T07:23:19;4.82;;;2.67;;
25922;SDS011;13725;51.170;4.442;2023-07-20T07:25:45;3.00;;;2.70;;
25922;SDS011;13725;51.170;4.442;2023-07-20T07:28:11;5.95;;;3.10;;
25922;SDS011;13725;51.170;4.442;2023-07-20T07:30:38;3.33;;;2.70;;
25922;SDS011;13725;51.170;4.442;2023-07-20T07:33:05;3.47;;;2.75;;
25922;SDS011;13725;51.170;4.442;2023-07-20T07:35:31;3.88;;;2.38;;
25922;SDS011;13725;51.170;4.442;2023-07-20T07:37:57;3.10;;;2.80;;
25922;SDS011;13725;51.170;4.442;2023-07-20T07:40:22;4.25;;;2.60;;
25922;SDS011;13725;51.170;4.442;2023-07-20T07:42:48;3.38;;;2.72;;
25922;SDS011;13725;51.170;4.442;2023-07-20T07:45:14;3.97;;;2.60;;
25922;SDS011;13725;51.170;4.442;2023-07-20T07:47:39;4.68;;;2.70;;
25922;SDS011;13725;51.170;4.442;2023-07-20T07:50:05;3.47;;;2.55;;
25922;SDS011;13725;51.170;4.442;2023-07-20T07:52:31;4.22;;;3.13;;
25922;SDS011;13725;51.170;4.442;2023-07-20T07:54:57;5.05;;;2.38;;
25922;SDS011;13725;51.170;4.442;2023-07-20T07:57:24;3.67;;;2.03;;
25922;SDS011;13725;51.170;4.442;2023-07-20T07:59:50;8.32;;;2.78;;
25922;SDS011;13725;51.170;4.442;2023-07-20T08:02:15;3.50;;;1.90;;
25922;SDS011;13725;51.170;4.442;2023-07-20T08:04:41;6.65;;;2.38;;
25922;SDS011;13725;51.170;4.442;2023-07-20T08:07:07;2.60;;;2.40;;
25922;SDS011;13725;51.170;4.442;2023-07-20T08:09:32;2.22;;;2.03;;
25922;SDS011;13725;51.170;4.442;2023-07-20T08:11:58;2.50;;;2.20;;
25922;SDS011;13725;51.170;4.442;2023-07-20T08:14:24;2.63;;;2.10;;
25922;SDS011;13725;51.170;4.442;2023-07-20T08:16:50;2.58;;;1.63;;
25922;SDS011;13725;51.170;4.442;2023-07-20T08:19:16;2.58;;;1.80;;
25922;SDS011;13725;51.170;4.442;2023-07-20T08:21:42;3.25;;;1.75;;
25922;SDS011;13725;51.170;4.442;2023-07-20T08:24:09;4.03;;;1.90;;
25922;SDS011;13725;51.170;4.442;2023-07-20T08:26:34;3.03;;;1.30;;
25922;SDS011;13725;51.170;4.442;2023-07-20T08:29:00;2.28;;;1.20;;
25922;SDS011;13725;51.170;4.442;2023-07-20T08:31:26;1.33;;;1.23;;
25922;SDS011;13725;51.170;4.442;2023-07-20T08:33:53;1.38;;;1.25;;
25922;SDS011;13725;51.170;4.442;2023-07-20T08:36:23;2.75;;;1.38;;
25922;SDS011;13725;51.170;4.442;2023-07-20T08:38:49;2.03;;;1.60;;
25922;SDS011;13725;51.170;4.442;2023-07-20T08:41:14;3.97;;;1.67;;
25922;SDS011;13725;51.170;4.442;2023-07-20T08:43:41;2.63;;;1.50;;
25922;SDS011;13725;51.170;4.442;2023-07-20T08:46:10;1.88;;;1.42;;
25922;SDS011;13725;51.170;4.442;2023-07-20T08:48:38;5.03;;;1.95;;
25922;SDS011;13725;51.170;4.442;2023-07-20T08:51:06;1.70;;;1.25;;
25922;SDS011;13725;51.170;4.442;2023-07-20T08:53:31;2.72;;;1.20;;
25922;SDS011;13725;51.170;4.442;2023-07-20T08:55:59;2.10;;;1.30;;
25922;SDS011;13725;51.170;4.442;2023-07-20T08:58:25;3.15;;;1.38;;
25922;SDS011;13725;51.170;4.442;2023-07-20T09:00:53;3.88;;;1.63;;
25922;SDS011;13725;51.170;4.442;2023-07-20T09:03:20;2.72;;;1.65;;
25922;SDS011;13725;51.170;4.442;2023-07-20T09:05:46;2.20;;;1.38;;
25922;SDS011;13725;51.170;4.442;2023-07-20T09:08:13;2.92;;;1.60;;
25922;SDS011;13725;51.170;4.442;2023-07-20T09:10:40;3.55;;;1.65;;
25922;SDS011;13725;51.170;4.442;2023-07-20T09:13:06;1.58;;;1.48;;
25922;SDS011;13725;51.170;4.442;2023-07-20T09:15:31;2.53;;;1.52;;
25922;SDS011;13725;51.170;4.442;2023-07-20T09:17:58;2.25;;;1.50;;
25922;SDS011;13725;51.170;4.442;2023-07-20T09:20:26;1.35;;;1.17;;
25922;SDS011;13725;51.170;4.442;2023-07-20T09:22:55;1.23;;;0.90;;
25922;SDS011;13725;51.170;4.442;2023-07-20T09:25:21;2.58;;;1.40;;
25922;SDS011;13725;51.170;4.442;2023-07-20T09:27:48;2.05;;;1.08;;
25922;SDS011;13725;51.170;4.442;2023-07-20T09:30:15;1.20;;;1.10;;
25922;SDS011;13725;51.170;4.442;2023-07-20T09:32:48;1.80;;;1.42;;
25922;SDS011;13725;51.170;4.442;2023-07-20T09:35:16;2.45;;;1.15;;
25922;SDS011;13725;51.170;4.442;2023-07-20T09:37:50;3.33;;;1.95;;
25922;SDS011;13725;51.170;4.442;2023-07-20T09:40:24;5.63;;;1.70;;
25922;SDS011;13725;51.170;4.442;2023-07-20T09:42:51;2.97;;;1.80;;
25922;SDS011;13725;51.170;4.442;2023-07-20T09:45:28;1.98;;;1.63;;
25922;SDS011;13725;51.170;4.442;2023-07-20T09:48:02;3.05;;;1.30;;
25922;SDS011;13725;51.170;4.442;2023-07-20T09:50:30;2.38;;;1.33;;
25922;SDS011;13725;51.170;4.442;2023-07-20T09:52:56;1.70;;;1.40;;
25922;SDS011;13725;51.170;4.442;2023-07-20T09:55:22;3.03;;;1.30;;
25922;SDS011;13725;51.170;4.442;2023-07-20T09:57:49;2.55;;;1.55;;
25922;SDS011;13725;51.170;4.442;2023-07-20T10:00:16;1.83;;;1.00;;
25922;SDS011;13725;51.170;4.442;2023-07-20T10:02:43;1.52;;;1.02;;
25922;SDS011;13725;51.170;4.442;2023-07-20T10:05:11;1.63;;;1.30;;
25922;SDS011;13725;51.170;4.442;2023-07-20T10:07:40;0.90;;;0.75;;
25922;SDS011;13725;51.170;4.442;2023-07-20T10:10:13;1.30;;;1.00;;
25922;SDS011;13725;51.170;4.442;2023-07-20T10:12:40;1.38;;;0.82;;
25922;SDS011;13725;51.170;4.442;2023-07-20T10:15:10;0.82;;;0.80;;
25922;SDS011;13725;51.170;4.442;2023-07-20T10:17:40;1.65;;;1.08;;
25922;SDS011;13725;51.170;4.442;2023-07-20T10:20:15;2.00;;;1.50;;
25922;SDS011;13725;51.170;4.442;2023-07-20T10:22:44;1.15;;;1.00;;
25922;SDS011;13725;51.170;4.442;2023-07-20T10:25:12;1.13;;;1.00;;
25922;SDS011;13725;51.170;4.442;2023-07-20T10:27:39;1.65;;;1.20;;
25922;SDS011;13725;51.170;4.442;2023-07-20T10:30:06;4.78;;;0.90;;
25922;SDS011;13725;51.170;4.442;2023-07-20T10:32:32;4.65;;;1.27;;
25922;SDS011;13725;51.170;4.442;2023-07-20T10:34:58;6.10;;;1.10;;
25922;SDS011;13725;51.170;4.442;2023-07-20T10:38:06;1.30;;;1.20;;
25922;SDS011;13725;51.170;4.442;2023-07-20T10:40:25;3.10;;;0.93;;
25922;SDS011;13725;51.170;4.442;2023-07-20T10:43:02;1.75;;;0.90;;
25922;SDS011;13725;51.170;4.442;2023-07-20T10:45:36;1.27;;;1.13;;
25922;SDS011;13725;51.170;4.442;2023-07-20T10:48:13;2.63;;;1.08;;
25922;SDS011;13725;51.170;4.442;2023-07-20T10:50:41;3.33;;;1.10;;
25922;SDS011;13725;51.170;4.442;2023-07-20T10:53:15;0.80;;;0.80;;
25922;SDS011;13725;51.170;4.442;2023-07-20T10:55:43;1.88;;;0.93;;
25922;SDS011;13725;51.170;4.442;2023-07-20T10:58:13;1.33;;;0.80;;
25922;SDS011;13725;51.170;4.442;2023-07-20T11:03:43;1.65;;;0.70;;
25922;SDS011;13725;51.170;4.442;2023-07-20T11:11:36;0.55;;;0.50;;
25922;SDS011;13725;51.170;4.442;2023-07-20T11:14:22;0.63;;;0.52;;
25922;SDS011;13725;51.170;4.442;2023-07-20T11:16:49;0.93;;;0.70;;
25922;SDS011;13725;51.170;4.442;2023-07-20T11:19:20;2.00;;;0.60;;
25922;SDS011;13725;51.170;4.442;2023-07-20T11:21:52;1.33;;;0.47;;
25922;SDS011;13725;51.170;4.442;2023-07-20T11:24:21;0.60;;;0.60;;
25922;SDS011;13725;51.170;4.442;2023-07-20T11:26:49;0.60;;;0.50;;
25922;SDS011;13725;51.170;4.442;2023-07-20T11:29:16;0.70;;;0.60;;
25922;SDS011;13725;51.170;4.442;2023-07-20T11:31:43;1.40;;;0.60;;
25922;SDS011;13725;51.170;4.442;2023-07-20T11:34:15;0.80;;;0.55;;
25922;SDS011;13725;51.170;4.442;2023-07-20T11:36:43;0.73;;;0.73;;
25922;SDS011;13725;51.170;4.442;2023-07-20T11:39:11;0.47;;;0.47;;
25922;SDS011;13725;51.170;4.442;2023-07-20T11:41:38;0.47;;;0.47;;
25922;SDS011;13725;51.170;4.442;2023-07-20T11:44:09;0.88;;;0.65;;
25922;SDS011;13725;51.170;4.442;2023-07-20T11:46:42;2.55;;;0.60;;
25922;SDS011;13725;51.170;4.442;2023-07-20T11:49:11;1.05;;;0.60;;
25922;SDS011;13725;51.170;4.442;2023-07-20T11:51:37;0.50;;;0.50;;
25922;SDS011;13725;51.170;4.442;2023-07-20T11:54:05;0.52;;;0.47;;
25922;SDS011;13725;51.170;4.442;2023-07-20T11:56:32;0.70;;;0.50;;
25922;SDS011;13725;51.170;4.442;2023-07-20T11:58:58;0.85;;;0.50;;
25922;SDS011;13725;51.170;4.442;2023-07-20T12:01:26;2.53;;;0.60;;
25922;SDS011;13725;51.170;4.442;2023-07-20T12:04:05;0.50;;;0.50;;
25922;SDS011;13725;51.170;4.442;2023-07-20T12:06:32;0.88;;;0.52;;
25922;SDS011;13725;51.170;4.442;2023-07-20T12:08:58;1.02;;;0.60;;
25922;SDS011;13725;51.170;4.442;2023-07-20T12:11:31;1.23;;;0.60;;
25922;SDS011;13725;51.170;4.442;2023-07-20T12:13:58;0.73;;;0.68;;
25922;SDS011;13725;51.170;4.442;2023-07-20T12:16:26;2.47;;;0.60;;
25922;SDS011;13725;51.170;4.442;2023-07-20T12:18:59;0.75;;;0.70;;
25922;SDS011;13725;51.170;4.442;2023-07-20T12:21:27;0.75;;;0.63;;
25922;SDS011;13725;51.170;4.442;2023-07-20T12:23:54;1.30;;;0.70;;
25922;SDS011;13725;51.170;4.442;2023-07-20T12:26:22;6.30;;;1.13;;
25922;SDS011;13725;51.170;4.442;2023-07-20T12:28:49;2.33;;;0.70;;
25922;SDS011;13725;51.170;4.442;2023-07-20T12:31:15;1.15;;;1.05;;
25922;SDS011;13725;51.170;4.442;2023-07-20T12:33:41;3.10;;;1.10;;
25922;SDS011;13725;51.170;4.442;2023-07-20T12:36:08;2.58;;;0.90;;
25922;SDS011;13725;51.170;4.442;2023-07-20T12:38:34;1.52;;;1.13;;
25922;SDS011;13725;51.170;4.442;2023-07-20T12:41:01;1.02;;;0.85;;
25922;SDS011;13725;51.170;4.442;2023-07-20T12:43:27;2.58;;;1.30;;
25922;SDS011;13725;51.170;4.442;2023-07-20T12:45:54;2.28;;;1.00;;
25922;SDS011;13725;51.170;4.442;2023-07-20T12:48:20;1.52;;;1.20;;
25922;SDS011;13725;51.170;4.442;2023-07-20T12:50:47;1.92;;;1.20;;
25922;SDS011;13725;51.170;4.442;2023-07-20T12:53:13;1.30;;;1.20;;
25922;SDS011;13725;51.170;4.442;2023-07-20T12:55:39;2.58;;;1.33;;
25922;SDS011;13725;51.170;4.442;2023-07-20T12:58:06;4.97;;;1.58;;
25922;SDS011;13725;51.170;4.442;2023-07-20T13:00:33;1.30;;;1.30;;
25922;SDS011;13725;51.170;4.442;2023-07-20T13:02:59;2.80;;;1.23;;
25922;SDS011;13725;51.170;4.442;2023-07-20T13:05:25;2.17;;;1.20;;
25922;SDS011;13725;51.170;4.442;2023-07-20T13:07:50;2.22;;;1.25;;
25922;SDS011;13725;51.170;4.442;2023-07-20T13:10:16;1.40;;;1.30;;
25922;SDS011;13725;51.170;4.442;2023-07-20T13:12:42;2.67;;;1.30;;
25922;SDS011;13725;51.170;4.442;2023-07-20T13:15:08;1.77;;;1.48;;
25922;SDS011;13725;51.170;4.442;2023-07-20T13:17:36;1.75;;;1.65;;
25922;SDS011;13725;51.170;4.442;2023-07-20T13:20:04;1.90;;;1.80;;
25922;SDS011;13725;51.170;4.442;2023-07-20T13:22:35;5.47;;;2.00;;
25922;SDS011;13725;51.170;4.442;2023-07-20T13:25:01;3.75;;;1.65;;
25922;SDS011;13725;51.170;4.442;2023-07-20T13:27:27;1.70;;;1.60;;
25922;SDS011;13725;51.170;4.442;2023-07-20T13:29:53;2.95;;;1.55;;
25922;SDS011;13725;51.170;4.442;2023-07-20T13:32:19;1.77;;;1.67;;
25922;SDS011;13725;51.170;4.442;2023-07-20T13:34:45;4.10;;;1.48;;
25922;SDS011;13725;51.170;4.442;2023-07-20T13:37:11;3.38;;;1.85;;
25922;SDS011;13725;51.170;4.442;2023-07-20T13:39:37;1.63;;;1.52;;
25922;SDS011;13725;51.170;4.442;2023-07-20T13:42:03;3.28;;;2.08;;
25922;SDS011;13725;51.170;4.442;2023-07-20T13:44:33;2.95;;;1.92;;
25922;SDS011;13725;51.170;4.442;2023-07-20T13:47:00;4.50;;;2.05;;
25922;SDS011;13725;51.170;4.442;2023-07-20T13:49:27;1.85;;;1.75;;
25922;SDS011;13725;51.170;4.442;2023-07-20T13:51:53;1.88;;;1.70;;
25922;SDS011;13725;51.170;4.442;2023-07-20T13:54:19;4.15;;;1.80;;
25922;SDS011;13725;51.170;4.442;2023-07-20T13:56:45;2.60;;;1.73;;
25922;SDS011;13725;51.170;4.442;2023-07-20T13:59:10;2.08;;;1.88;;
25922;SDS011;13725;51.170;4.442;2023-07-20T14:01:36;4.78;;;2.33;;
25922;SDS011;13725;51.170;4.442;2023-07-20T14:04:02;3.60;;;2.50;;
25922;SDS011;13725;51.170;4.442;2023-07-20T14:06:29;2.25;;;2.05;;
25922;SDS011;13725;51.170;4.442;2023-07-20T14:08:56;5.30;;;1.90;;
25922;SDS011;13725;51.170;4.442;2023-07-20T14:11:22;4.18;;;2.30;;
25922;SDS011;13725;51.170;4.442;2023-07-20T14:13:49;2.20;;;2.03;;
25922;SDS011;13725;51.170;4.442;2023-07-20T14:16:16;2.55;;;2.08;;
25922;SDS011;13725;51.170;4.442;2023-07-20T14:18:41;2.40;;;2.20;;
25922;SDS011;13725;51.170;4.442;2023-07-20T14:21:07;2.58;;;2.38;;
25922;SDS011;13725;51.170;4.442;2023-07-20T14:23:33;2.53;;;2.33;;
25922;SDS011;13725;51.170;4.442;2023-07-20T14:25:59;3.67;;;2.50;;
25922;SDS011;13725;51.170;4.442;2023-07-20T14:28:25;4.82;;;2.50;;
25922;SDS011;13725;51.170;4.442;2023-07-20T14:30:51;3.17;;;2.20;;
25922;SDS011;13725;51.170;4.442;2023-07-20T14:33:16;2.40;;;2.00;;
25922;SDS011;13725;51.170;4.442;2023-07-20T14:35:42;3.58;;;2.53;;
25922;SDS011;13725;51.170;4.442;2023-07-20T14:38:08;2.40;;;2.20;;
25922;SDS011;13725;51.170;4.442;2023-07-20T14:40:34;3.08;;;2.10;;
25922;SDS011;13725;51.170;4.442;2023-07-20T14:42:59;2.60;;;2.45;;
25922;SDS011;13725;51.170;4.442;2023-07-20T14:45:28;1.85;;;1.75;;
25922;SDS011;13725;51.170;4.442;2023-07-20T14:47:55;3.85;;;2.15;;
25922;SDS011;13725;51.170;4.442;2023-07-20T14:50:21;4.68;;;2.53;;
25922;SDS011;13725;51.170;4.442;2023-07-20T14:52:46;2.92;;;2.40;;
25922;SDS011;13725;51.170;4.442;2023-07-20T14:55:13;6.13;;;2.30;;
25922;SDS011;13725;51.170;4.442;2023-07-20T14:57:38;1.90;;;1.80;;